Terminal Aerodrome Forecast
Issued by NWS

Current Version | Previous Version | Text Only | Print | Product List | Glossary On
Versions: 1 2 3 4 5 6 7 8 9 10 11 12 13 14 15 16 17 18 19 20 21 22 23 24 25 26 27 28
000
FTUS45 KGJT 221720
TAFCNY
TAF
KCNY 221720Z 2218/2318 10004KT P6SM SKC
     FM222100 24010G18KT P6SM SKC
     FM230000 28008KT P6SM SKC
     FM230500 14003KT P6SM SKC=

USA.gov is the U.S. government's official web portal to all federal, state and local government web resources and services.